Time;durP1;ratioP1;P1;durP2;ratioP2;P2;SDS_P1;SDS_P2;PMS_P1;PMS_P2;Temp;Humidity;BMP_temperature;BMP_pressure;BME280_temperature;BME280_humidity;BME280_pressure;Samples;Min_cycle;Max_cycle;Signal;HPM_P1;HPM_P2
2021/07/15 00:02:19;;;;;;;2.43;1.00;;;;;;;;;;6185466;23;20001;-59
2021/07/15 00:04:46;;;;;;;2.93;1.00;;;;;;;;;;6158898;23;20005;-59
2021/07/15 00:07:14;;;;;;;0.63;0.50;;;;;;;;;;6185419;23;20001;-59
2021/07/15 00:09:42;;;;;;;1.00;0.50;;;;;;;;;;6158925;23;20571;-59
2021/07/15 00:12:09;;;;;;;1.40;1.13;;;;;;;;;;6185144;23;20069;-59
2021/07/15 00:14:36;;;;;;;3.00;1.47;;;;;;;;;;6185201;23;20009;-59
2021/07/15 00:17:04;;;;;;;0.93;0.60;;;;;;;;;;6185514;23;20001;-59
2021/07/15 00:19:34;;;;;;;0.60;0.50;;;;;;;;;;6185254;23;20005;-59
2021/07/15 00:22:01;;;;;;;1.90;0.87;;;;;;;;;;6185093;23;20009;-59
2021/07/15 00:24:29;;;;;;;0.97;0.50;;;;;;;;;;6158802;23;20001;-59
2021/07/15 00:26:56;;;;;;;1.90;0.63;;;;;;;;;;6185462;23;20001;-59
2021/07/15 00:29:23;;;;;;;0.70;0.30;;;;;;;;;;6185154;23;20484;-59
2021/07/15 00:31:50;;;;;;;1.97;0.50;;;;;;;;;;6185116;23;20009;-60
2021/07/15 00:34:17;;;;;;;1.10;0.50;;;;;;;;;;6185008;23;20081;-60
2021/07/15 00:36:44;;;;;;;0.97;0.47;;;;;;;;;;6185283;23;20005;-59
2021/07/15 00:39:10;;;;;;;0.97;0.47;;;;;;;;;;6185174;23;20064;-60
2021/07/15 00:41:37;;;;;;;2.03;0.60;;;;;;;;;;6185495;23;20002;-60
2021/07/15 00:44:05;;;;;;;0.60;0.40;;;;;;;;;;6185123;23;20008;-60
2021/07/15 00:46:32;;;;;;;0.80;0.40;;;;;;;;;;6185499;23;20021;-60
2021/07/15 00:48:59;;;;;;;0.97;0.43;;;;;;;;;;6185127;23;20429;-60
2021/07/15 00:51:29;;;;;;;1.10;0.97;;;;;;;;;;6159149;23;20424;-60
2021/07/15 00:53:56;;;;;;;1.00;0.40;;;;;;;;;;6185051;23;20020;-60
2021/07/15 00:56:23;;;;;;;0.70;0.30;;;;;;;;;;6185171;23;20068;-60
2021/07/15 00:58:50;;;;;;;0.67;0.30;;;;;;;;;;6185071;23;20009;-60
2021/07/15 01:01:17;;;;;;;1.53;0.40;;;;;;;;;;6158676;23;20009;-60
2021/07/15 01:03:49;;;;;;;1.20;0.40;;;;;;;;;;6185100;23;20088;-59
2021/07/15 01:06:17;;;;;;;1.37;0.50;;;;;;;;;;6184592;23;20058;-59
2021/07/15 01:08:43;;;;;;;1.87;0.40;;;;;;;;;;6184823;23;20017;-60
2021/07/15 01:11:22;;;;;;;0.53;0.40;;;;;;;;;;6184908;23;20055;-60
2021/07/15 01:13:59;;;;;;;1.83;0.80;;;;;;;;;;6185071;23;20312;-59
2021/07/15 01:16:25;;;;;;;1.70;0.80;;;;;;;;;;6184238;23;20009;-59
2021/07/15 01:18:52;;;;;;;4.13;2.30;;;;;;;;;;6184817;23;20084;-59
2021/07/15 01:21:23;;;;;;;4.83;1.83;;;;;;;;;;6184771;23;20002;-59
2021/07/15 01:24:10;;;;;;;2.43;1.00;;;;;;;;;;6184715;23;20040;-59
2021/07/15 01:26:48;;;;;;;1.17;0.60;;;;;;;;;;6186926;23;20001;-59
2021/07/15 01:29:35;;;;;;;6.47;1.90;;;;;;;;;;6186533;23;20017;-59
2021/07/15 01:32:04;;;;;;;1.63;0.90;;;;;;;;;;6186764;23;20002;-60
2021/07/15 01:34:36;;;;;;;1.37;0.80;;;;;;;;;;6186590;23;20009;-59
2021/07/15 01:37:03;;;;;;;2.03;0.80;;;;;;;;;;6185732;23;20005;-59
2021/07/15 01:39:33;;;;;;;1.07;0.60;;;;;;;;;;6186948;23;20012;-60
2021/07/15 01:42:03;;;;;;;3.97;0.90;;;;;;;;;;6186549;23;20005;-59
2021/07/15 01:44:31;;;;;;;2.13;0.67;;;;;;;;;;6186384;23;20483;-59
2021/07/15 01:47:01;;;;;;;4.80;0.93;;;;;;;;;;6187506;23;20020;-59
2021/07/15 01:49:28;;;;;;;3.63;1.47;;;;;;;;;;6186432;23;20095;-59
2021/07/15 01:52:00;;;;;;;2.83;0.80;;;;;;;;;;6186380;23;20057;-59
2021/07/15 01:54:28;;;;;;;1.83;0.60;;;;;;;;;;6186298;23;20096;-59
2021/07/15 01:56:55;;;;;;;2.37;0.43;;;;;;;;;;6186492;23;20001;-59
2021/07/15 01:59:29;;;;;;;1.77;0.63;;;;;;;;;;6186440;23;20480;-59
2021/07/15 02:01:58;;;;;;;1.10;0.47;;;;;;;;;;6186411;23;20005;-59
2021/07/15 02:04:25;;;;;;;5.00;1.00;;;;;;;;;;6186380;23;20012;-59
2021/07/15 02:06:53;;;;;;;1.53;0.70;;;;;;;;;;6186468;23;20099;-59
2021/07/15 02:09:20;;;;;;;1.33;0.83;;;;;;;;;;6186369;23;20035;-59
2021/07/15 02:11:49;;;;;;;0.83;0.50;;;;;;;;;;6186362;23;20008;-59
2021/07/15 02:14:16;;;;;;;2.77;0.80;;;;;;;;;;6186267;23;20008;-59
2021/07/15 02:16:48;;;;;;;1.80;0.70;;;;;;;;;;6186203;23;20012;-59
2021/07/15 02:19:15;;;;;;;0.87;0.50;;;;;;;;;;6186408;23;19997;-59
2021/07/15 02:21:42;;;;;;;2.70;0.60;;;;;;;;;;6186253;23;20005;-59
2021/07/15 02:24:11;;;;;;;0.80;0.50;;;;;;;;;;6186284;23;20001;-59
2021/07/15 02:26:39;;;;;;;1.50;0.57;;;;;;;;;;6186260;23;20040;-59
2021/07/15 02:29:07;;;;;;;1.40;0.70;;;;;;;;;;6186003;23;20013;-59
2021/07/15 02:31:36;;;;;;;2.40;0.63;;;;;;;;;;6186282;23;20008;-59
2021/07/15 02:34:21;;;;;;;1.23;0.50;;;;;;;;;;6185819;23;20024;-59
2021/07/15 02:36:49;;;;;;;2.30;0.70;;;;;;;;;;6186110;23;20001;-59
2021/07/15 02:39:16;;;;;;;1.60;0.90;;;;;;;;;;6186257;23;20005;-59
2021/07/15 02:41:43;;;;;;;1.87;0.77;;;;;;;;;;6185986;23;20417;-59
2021/07/15 02:44:10;;;;;;;4.90;1.53;;;;;;;;;;6186049;23;20001;-59
2021/07/15 02:46:43;;;;;;;3.40;1.63;;;;;;;;;;6186852;22;20058;-59
2021/07/15 02:49:10;;;;;;;3.83;1.40;;;;;;;;;;6185692;23;20337;-59
2021/07/15 02:51:37;;;;;;;2.07;1.10;;;;;;;;;;6186073;23;20005;-59
2021/07/15 02:54:05;;;;;;;1.77;0.93;;;;;;;;;;6185980;23;20036;-59
2021/07/15 02:56:41;;;;;;;2.23;1.00;;;;;;;;;;6186058;23;20004;-59
2021/07/15 02:59:18;;;;;;;4.30;0.70;;;;;;;;;;6185781;23;20005;-59
2021/07/15 03:01:52;;;;;;;2.40;0.97;;;;;;;;;;6186130;23;20005;-59
2021/07/15 03:04:33;;;;;;;1.83;0.97;;;;;;;;;;6185870;23;20002;-59
2021/07/15 03:07:05;;;;;;;8.33;0.90;;;;;;;;;;6185900;23;20005;-59
2021/07/15 03:09:33;;;;;;;2.67;0.70;;;;;;;;;;6185766;23;20020;-59
2021/07/15 03:12:03;;;;;;;1.43;0.40;;;;;;;;;;6185614;23;20005;-59
2021/07/15 03:14:35;;;;;;;1.00;0.50;;;;;;;;;;6185839;23;20055;-59
2021/07/15 03:17:04;;;;;;;1.43;0.63;;;;;;;;;;6185854;23;20329;-59
2021/07/15 03:19:34;;;;;;;0.53;0.20;;;;;;;;;;6160104;23;20001;-59
2021/07/15 03:22:03;;;;;;;6.17;0.50;;;;;;;;;;6185658;23;20432;-59
2021/07/15 03:24:33;;;;;;;2.63;0.70;;;;;;;;;;6185803;23;20001;-59
2021/07/15 03:27:04;;;;;;;1.83;0.90;;;;;;;;;;6185785;23;20008;-59
2021/07/15 03:29:34;;;;;;;1.30;0.60;;;;;;;;;;6185877;23;20016;-59
2021/07/15 03:32:06;;;;;;;1.00;0.47;;;;;;;;;;6185554;23;20076;-59
2021/07/15 03:34:36;;;;;;;4.03;0.47;;;;;;;;;;6185743;23;20087;-59
2021/07/15 03:37:06;;;;;;;3.77;0.50;;;;;;;;;;6185664;23;20008;-59
2021/07/15 03:39:35;;;;;;;1.33;0.30;;;;;;;;;;6159768;23;20499;-59
2021/07/15 03:42:01;;;;;;;1.57;0.57;;;;;;;;;;6185545;23;20005;-59
2021/07/15 03:44:29;;;;;;;2.50;0.40;;;;;;;;;;6185345;23;20001;-59
2021/07/15 03:47:03;;;;;;;1.50;0.50;;;;;;;;;;6186317;23;20087;-59
2021/07/15 03:49:30;;;;;;;2.17;0.90;;;;;;;;;;6185339;23;20017;-59
2021/07/15 03:51:57;;;;;;;1.27;0.50;;;;;;;;;;6185150;23;20112;-59
2021/07/15 03:54:24;;;;;;;1.57;0.60;;;;;;;;;;6185578;23;20001;-59
2021/07/15 03:56:51;;;;;;;2.00;0.60;;;;;;;;;;6185526;23;19997;-59
2021/07/15 03:59:20;;;;;;;2.67;0.80;;;;;;;;;;6185488;23;20001;-59
2021/07/15 04:01:56;;;;;;;2.10;0.87;;;;;;;;;;6185366;23;20321;-59
2021/07/15 04:04:25;;;;;;;2.60;0.80;;;;;;;;;;6185169;23;20326;-59
2021/07/15 04:06:52;;;;;;;3.33;0.60;;;;;;;;;;6185369;23;20116;-59
2021/07/15 04:09:19;;;;;;;3.37;0.80;;;;;;;;;;6185147;23;20040;-59
2021/07/15 04:11:47;;;;;;;1.73;0.80;;;;;;;;;;6185309;23;20429;-59
2021/07/15 04:14:18;;;;;;;3.13;0.60;;;;;;;;;;6185317;23;20072;-59
2021/07/15 04:16:57;;;;;;;1.23;0.53;;;;;;;;;;6185104;23;20318;-59
2021/07/15 04:19:24;;;;;;;1.57;0.63;;;;;;;;;;6185349;23;19997;-59
2021/07/15 04:21:54;;;;;;;1.93;0.60;;;;;;;;;;6185174;23;20132;-59
2021/07/15 04:24:21;;;;;;;1.57;0.50;;;;;;;;;;6185306;23;20005;-59
2021/07/15 04:26:48;;;;;;;1.13;0.50;;;;;;;;;;6185205;23;20023;-59
2021/07/15 04:29:16;;;;;;;1.03;0.50;;;;;;;;;;6185166;23;20013;-59
2021/07/15 04:31:46;;;;;;;2.63;0.53;;;;;;;;;;6185188;23;20032;-59
2021/07/15 04:34:13;;;;;;;2.00;0.50;;;;;;;;;;6185172;23;20025;-59
2021/07/15 04:36:41;;;;;;;1.93;0.40;;;;;;;;;;6185278;23;20004;-59
2021/07/15 04:39:08;;;;;;;0.70;0.30;;;;;;;;;;6185133;23;20008;-59
2021/07/15 04:41:35;;;;;;;2.63;0.70;;;;;;;;;;6185162;23;20425;-59
2021/07/15 04:44:03;;;;;;;1.10;0.30;;;;;;;;;;6185114;23;20080;-59
2021/07/15 04:46:30;;;;;;;2.10;0.60;;;;;;;;;;6185765;23;20017;-59
2021/07/15 04:48:56;;;;;;;1.33;0.70;;;;;;;;;;6185141;23;20013;-59
2021/07/15 04:51:23;;;;;;;1.67;0.50;;;;;;;;;;6185096;23;19997;-58
2021/07/15 04:53:50;;;;;;;3.73;0.80;;;;;;;;;;6185106;23;20076;-59
2021/07/15 04:56:17;;;;;;;2.60;0.83;;;;;;;;;;6185334;23;20009;-58
2021/07/15 04:58:45;;;;;;;0.97;0.53;;;;;;;;;;6185507;23;20056;-59
2021/07/15 05:01:12;;;;;;;1.17;0.60;;;;;;;;;;6186876;23;20005;-59
2021/07/15 05:03:39;;;;;;;1.60;0.63;;;;;;;;;;6187031;23;20328;-59
2021/07/15 05:06:07;;;;;;;0.53;0.40;;;;;;;;;;6187013;23;19998;-59
2021/07/15 05:08:34;;;;;;;0.57;0.30;;;;;;;;;;6186785;23;20017;-59
2021/07/15 05:11:03;;;;;;;3.03;0.40;;;;;;;;;;6186967;23;20059;-58
2021/07/15 05:13:30;;;;;;;2.83;0.43;;;;;;;;;;6186898;23;20009;-59
2021/07/15 05:15:57;;;;;;;2.83;0.90;;;;;;;;;;6186872;23;20008;-58
2021/07/15 05:18:24;;;;;;;1.93;0.87;;;;;;;;;;6187003;23;20005;-59
2021/07/15 05:20:50;;;;;;;3.23;0.60;;;;;;;;;;6186622;23;20005;-59
2021/07/15 05:23:18;;;;;;;0.80;0.40;;;;;;;;;;6186776;23;20020;-59
2021/07/15 05:25:45;;;;;;;0.53;0.40;;;;;;;;;;6186734;23;20005;-59
2021/07/15 05:28:12;;;;;;;1.50;0.40;;;;;;;;;;6186541;23;20017;-59
2021/07/15 05:30:39;;;;;;;3.43;0.63;;;;;;;;;;6186669;23;20001;-59
2021/07/15 05:33:05;;;;;;;1.50;0.57;;;;;;;;;;6186825;23;20429;-59
2021/07/15 05:35:33;;;;;;;2.07;0.57;;;;;;;;;;6186836;23;20324;-59
2021/07/15 05:38:00;;;;;;;0.67;0.50;;;;;;;;;;6186636;23;20024;-59
2021/07/15 05:40:27;;;;;;;1.80;0.80;;;;;;;;;;6186702;23;20460;-59
2021/07/15 05:42:54;;;;;;;1.20;0.40;;;;;;;;;;6186765;23;19997;-59
2021/07/15 05:45:20;;;;;;;1.57;0.60;;;;;;;;;;6186632;23;20085;-59
2021/07/15 05:47:47;;;;;;;1.37;0.60;;;;;;;;;;6187383;22;20104;-58
2021/07/15 05:50:14;;;;;;;2.77;0.50;;;;;;;;;;6186697;23;20011;-59
2021/07/15 05:52:41;;;;;;;0.73;0.50;;;;;;;;;;6186503;23;20001;-59
2021/07/15 05:55:08;;;;;;;1.63;0.40;;;;;;;;;;6186634;23;20008;-59
2021/07/15 05:57:35;;;;;;;2.53;0.40;;;;;;;;;;6186558;23;20001;-59
2021/07/15 06:00:02;;;;;;;1.10;0.30;;;;;;;;;;6186927;23;20413;-59
2021/07/15 06:02:29;;;;;;;2.43;0.53;;;;;;;;;;6186458;23;20001;-59
2021/07/15 06:04:55;;;;;;;1.40;0.50;;;;;;;;;;6186350;23;19997;-58
2021/07/15 06:07:22;;;;;;;1.37;0.50;;;;;;;;;;6186531;23;20001;-59
2021/07/15 06:09:49;;;;;;;1.83;0.60;;;;;;;;;;6186128;23;20332;-59
2021/07/15 06:12:16;;;;;;;0.70;0.40;;;;;;;;;;6186628;23;20070;-59
2021/07/15 06:14:43;;;;;;;1.63;0.70;;;;;;;;;;6186612;23;20015;-59
2021/07/15 06:17:09;;;;;;;1.40;0.50;;;;;;;;;;6186328;23;20060;-59
2021/07/15 06:19:36;;;;;;;1.97;0.73;;;;;;;;;;6186424;23;20007;-59
2021/07/15 06:22:03;;;;;;;1.10;0.30;;;;;;;;;;6186263;23;20005;-58
2021/07/15 06:24:30;;;;;;;3.50;0.70;;;;;;;;;;6186343;23;20306;-59
2021/07/15 06:26:58;;;;;;;4.00;0.57;;;;;;;;;;6186283;23;20027;-59
2021/07/15 06:29:26;;;;;;;0.90;0.63;;;;;;;;;;6186130;23;20020;-59
2021/07/15 06:31:53;;;;;;;1.43;0.60;;;;;;;;;;6186394;23;20076;-59
2021/07/15 06:34:20;;;;;;;1.27;0.50;;;;;;;;;;6186160;23;20068;-59
2021/07/15 06:36:48;;;;;;;2.17;0.80;;;;;;;;;;6186371;23;20013;-59
2021/07/15 06:39:15;;;;;;;1.50;0.70;;;;;;;;;;6186082;23;20003;-59
2021/07/15 06:41:42;;;;;;;1.60;0.73;;;;;;;;;;6185917;23;20005;-59
2021/07/15 06:44:13;;;;;;;2.27;0.50;;;;;;;;;;6186110;23;19997;-59
2021/07/15 06:46:40;;;;;;;0.90;0.50;;;;;;;;;;6186631;23;20021;-59
2021/07/15 06:49:07;;;;;;;1.00;0.37;;;;;;;;;;6185907;23;20096;-58
2021/07/15 06:51:34;;;;;;;0.67;0.50;;;;;;;;;;6186046;23;20001;-58
2021/07/15 06:54:01;;;;;;;1.70;0.60;;;;;;;;;;6186065;23;20001;-58
2021/07/15 06:56:28;;;;;;;2.10;0.93;;;;;;;;;;6185943;23;20001;-58
2021/07/15 06:58:55;;;;;;;4.20;1.10;;;;;;;;;;6185970;23;20080;-59
2021/07/15 07:01:21;;;;;;;1.67;0.97;;;;;;;;;;6185698;23;20001;-58
2021/07/15 07:03:48;;;;;;;0.80;0.70;;;;;;;;;;6185805;23;19997;-58
2021/07/15 07:06:15;;;;;;;0.90;0.50;;;;;;;;;;6185684;23;20015;-58
2021/07/15 07:08:42;;;;;;;1.27;0.60;;;;;;;;;;6185733;23;20040;-58
2021/07/15 07:11:08;;;;;;;0.93;0.47;;;;;;;;;;6185789;23;20001;-58
2021/07/15 07:13:35;;;;;;;1.00;0.33;;;;;;;;;;6185732;23;20013;-58
2021/07/15 07:16:02;;;;;;;0.53;0.30;;;;;;;;;;6185819;23;20025;-59
2021/07/15 07:18:29;;;;;;;2.43;0.40;;;;;;;;;;6185781;23;20036;-58
2021/07/15 07:20:55;;;;;;;1.40;0.33;;;;;;;;;;6185758;23;20001;-59
2021/07/15 07:23:22;;;;;;;0.30;0.20;;;;;;;;;;6185265;23;20005;-58
2021/07/15 07:25:49;;;;;;;0.93;0.30;;;;;;;;;;6186149;23;20001;-58
2021/07/15 07:28:16;;;;;;;3.10;0.30;;;;;;;;;;6185673;23;20040;-58
2021/07/15 07:30:42;;;;;;;0.77;0.40;;;;;;;;;;6185541;23;20005;-59
2021/07/15 07:33:10;;;;;;;1.03;0.43;;;;;;;;;;6185679;23;20012;-59
2021/07/15 07:35:37;;;;;;;3.17;0.57;;;;;;;;;;6185712;23;20005;-59
2021/07/15 07:38:04;;;;;;;4.83;0.70;;;;;;;;;;6185477;23;20023;-58
2021/07/15 07:40:31;;;;;;;2.57;0.37;;;;;;;;;;6185487;23;20072;-58
2021/07/15 07:42:57;;;;;;;0.80;0.40;;;;;;;;;;6185564;23;20009;-58
2021/07/15 07:45:24;;;;;;;0.70;0.37;;;;;;;;;;6185501;23;20001;-59
2021/07/15 07:47:51;;;;;;;3.33;0.50;;;;;;;;;;6186088;22;20016;-58
2021/07/15 07:50:18;;;;;;;1.17;0.40;;;;;;;;;;6185482;23;20072;-58
2021/07/15 07:52:45;;;;;;;0.60;0.43;;;;;;;;;;6185470;23;20001;-58
2021/07/15 07:55:12;;;;;;;0.97;0.57;;;;;;;;;;6185485;23;20435;-58
2021/07/15 07:57:39;;;;;;;2.17;0.40;;;;;;;;;;6185476;23;20001;-58
2021/07/15 08:00:09;;;;;;;0.50;0.27;;;;;;;;;;6185456;23;20005;-58
2021/07/15 08:02:50;;;;;;;2.67;0.40;;;;;;;;;;6185223;23;20089;-58
2021/07/15 08:05:21;;;;;;;1.73;0.60;;;;;;;;;;6185208;23;20013;-58
2021/07/15 08:07:48;;;;;;;1.17;0.60;;;;;;;;;;6185247;23;20001;-58
2021/07/15 08:10:15;;;;;;;1.40;0.30;;;;;;;;;;6185399;23;20032;-58
2021/07/15 08:12:43;;;;;;;1.33;0.70;;;;;;;;;;6185202;23;20432;-58
2021/07/15 08:15:10;;;;;;;0.63;0.30;;;;;;;;;;6185648;23;20413;-59
2021/07/15 08:17:37;;;;;;;1.43;0.50;;;;;;;;;;6185126;23;20555;-58
2021/07/15 08:20:05;;;;;;;0.83;0.50;;;;;;;;;;6185301;23;20024;-58
2021/07/15 08:22:32;;;;;;;0.80;0.30;;;;;;;;;;6185194;23;20011;-58
2021/07/15 08:24:59;;;;;;;6.60;0.60;;;;;;;;;;6185220;23;20000;-58
2021/07/15 08:27:26;;;;;;;0.80;0.50;;;;;;;;;;6185338;23;20015;-58
2021/07/15 08:29:53;;;;;;;0.70;0.30;;;;;;;;;;6185116;23;20019;-58
2021/07/15 08:32:21;;;;;;;1.13;0.30;;;;;;;;;;6185228;23;20097;-58
2021/07/15 08:34:47;;;;;;;0.93;0.50;;;;;;;;;;6187868;23;20005;-58
2021/07/15 08:37:14;;;;;;;1.47;0.60;;;;;;;;;;6188505;23;19997;-58
2021/07/15 08:39:41;;;;;;;4.43;0.70;;;;;;;;;;6188417;23;20027;-58
2021/07/15 08:42:09;;;;;;;2.47;0.40;;;;;;;;;;6188449;23;20076;-58
2021/07/15 08:44:39;;;;;;;0.60;0.30;;;;;;;;;;6188583;23;20024;-58
2021/07/15 08:47:06;;;;;;;1.37;0.40;;;;;;;;;;6189134;22;20084;-58
2021/07/15 08:49:33;;;;;;;1.80;0.23;;;;;;;;;;6188484;23;20013;-58
2021/07/15 08:52:00;;;;;;;0.70;0.50;;;;;;;;;;6188514;23;20001;-58
2021/07/15 08:55:19;;;;;;;0.60;0.30;;;;;;;;;;6188353;23;20012;-58
2021/07/15 08:57:17;;;;;;;1.80;0.40;;;;;;;;;;6176934;23;20012;-58
2021/07/15 08:59:43;;;;;;;2.30;0.40;;;;;;;;;;6188375;23;20001;-58
2021/07/15 09:02:16;;;;;;;1.63;0.30;;;;;;;;;;6188715;23;20072;-58
2021/07/15 09:04:42;;;;;;;0.50;0.20;;;;;;;;;;6188346;23;20056;-58
2021/07/15 09:07:09;;;;;;;0.90;0.50;;;;;;;;;;6188487;23;20259;-58
2021/07/15 09:09:36;;;;;;;2.30;0.40;;;;;;;;;;6188341;23;20092;-58
2021/07/15 09:12:03;;;;;;;2.43;0.47;;;;;;;;;;6188329;23;20008;-58
2021/07/15 09:14:43;;;;;;;2.40;0.43;;;;;;;;;;6188403;23;20367;-58
2021/07/15 09:17:10;;;;;;;1.30;0.33;;;;;;;;;;6188426;23;20001;-58
2021/07/15 09:19:39;;;;;;;0.90;0.40;;;;;;;;;;6188403;23;20075;-58
2021/07/15 09:22:11;;;;;;;4.30;0.50;;;;;;;;;;6188320;23;19997;-58
2021/07/15 09:24:42;;;;;;;0.50;0.40;;;;;;;;;;6188196;23;20017;-58
2021/07/15 09:27:10;;;;;;;2.30;1.03;;;;;;;;;;6188242;23;20070;-58
2021/07/15 09:29:37;;;;;;;1.37;0.50;;;;;;;;;;6188176;23;20019;-58
2021/07/15 09:32:04;;;;;;;2.07;0.60;;;;;;;;;;6188083;23;20007;-58
2021/07/15 09:34:32;;;;;;;0.60;0.33;;;;;;;;;;6188258;23;20087;-58
2021/07/15 09:36:59;;;;;;;1.57;0.50;;;;;;;;;;6188255;23;20008;-58
2021/07/15 09:39:29;;;;;;;0.60;0.60;;;;;;;;;;6188308;23;20055;-58
2021/07/15 09:42:16;;;;;;;0.70;0.30;;;;;;;;;;6188231;23;20025;-58
2021/07/15 09:44:46;;;;;;;0.60;0.50;;;;;;;;;;6187823;23;20040;-58
2021/07/15 09:47:36;;;;;;;0.40;0.30;;;;;;;;;;6187195;23;20013;-58
2021/07/15 09:50:26;;;;;;;1.27;0.50;;;;;;;;;;6168808;23;20120;-59
2021/07/15 09:52:54;;;;;;;3.10;0.40;;;;;;;;;;6168341;23;20012;-58
2021/07/15 09:55:25;;;;;;;0.67;0.30;;;;;;;;;;6186562;23;20001;-58
2021/07/15 09:58:05;;;;;;;0.90;0.40;;;;;;;;;;6186610;23;20005;-58
2021/07/15 10:00:39;;;;;;;0.50;0.30;;;;;;;;;;6186284;23;20421;-58
2021/07/15 10:03:07;;;;;;;0.40;0.30;;;;;;;;;;6186617;23;20429;-58
2021/07/15 10:05:35;;;;;;;1.53;0.50;;;;;;;;;;6186453;23;19997;-58
2021/07/15 10:08:06;;;;;;;0.70;0.53;;;;;;;;;;6186152;23;20063;-58
2021/07/15 10:10:33;;;;;;;1.10;0.60;;;;;;;;;;6187039;23;20060;-58
2021/07/15 10:13:16;;;;;;;6.77;0.70;;;;;;;;;;6186439;23;20375;-58
2021/07/15 10:15:44;;;;;;;1.43;0.60;;;;;;;;;;6186346;23;20012;-59
2021/07/15 10:18:11;;;;;;;1.83;0.80;;;;;;;;;;6186456;23;20127;-58
2021/07/15 10:20:38;;;;;;;1.30;0.67;;;;;;;;;;6186202;23;20333;-58
2021/07/15 10:23:05;;;;;;;3.37;0.93;;;;;;;;;;6186326;23;20059;-58
2021/07/15 10:25:32;;;;;;;3.10;1.40;;;;;;;;;;6186319;23;20075;-58
2021/07/15 10:27:59;;;;;;;2.87;0.80;;;;;;;;;;6186187;23;20008;-58
2021/07/15 10:30:28;;;;;;;1.50;0.57;;;;;;;;;;6186081;23;20013;-58
2021/07/15 10:32:55;;;;;;;6.43;0.50;;;;;;;;;;6186207;23;20024;-58
2021/07/15 10:35:25;;;;;;;1.13;0.40;;;;;;;;;;6186214;23;20008;-58
2021/07/15 10:37:56;;;;;;;1.10;0.73;;;;;;;;;;6186096;23;20005;-58
2021/07/15 10:40:22;;;;;;;0.60;0.30;;;;;;;;;;6186082;23;20013;-58
2021/07/15 10:42:49;;;;;;;2.67;0.40;;;;;;;;;;6186194;23;20001;-58
2021/07/15 10:45:16;;;;;;;1.70;0.43;;;;;;;;;;6185850;23;20039;-58
2021/07/15 10:47:43;;;;;;;0.87;0.30;;;;;;;;;;6186680;22;20353;-58
2021/07/15 10:50:10;;;;;;;1.00;0.33;;;;;;;;;;6186037;23;20080;-58
2021/07/15 10:52:38;;;;;;;1.00;0.30;;;;;;;;;;6186120;23;20001;-58
2021/07/15 10:55:06;;;;;;;1.00;0.30;;;;;;;;;;6186141;23;20001;-58
2021/07/15 10:57:32;;;;;;;0.93;0.30;;;;;;;;;;6185929;23;20005;-58
2021/07/15 11:00:19;;;;;;;0.60;0.40;;;;;;;;;;6185900;23;20524;-59
2021/07/15 11:02:46;;;;;;;0.20;0.10;;;;;;;;;;6161228;23;20012;-58
2021/07/15 11:05:28;;;;;;;0.23;0.20;;;;;;;;;;6185890;23;20005;-58
2021/07/15 11:07:55;;;;;;;0.30;0.10;;;;;;;;;;6185727;23;20083;-58
2021/07/15 11:10:23;;;;;;;0.20;0.20;;;;;;;;;;6185621;23;20009;-58
2021/07/15 11:12:59;;;;;;;2.50;0.30;;;;;;;;;;6185647;23;20009;-58
2021/07/15 11:15:45;;;;;;;0.30;0.20;;;;;;;;;;6185878;23;20005;-58
2021/07/15 11:18:32;;;;;;;0.17;0.17;;;;;;;;;;6185987;23;20012;-58
2021/07/15 11:21:17;;;;;;;0.50;0.23;;;;;;;;;;6185602;23;20005;-58
2021/07/15 11:23:44;;;;;;;1.23;0.20;;;;;;;;;;6185673;23;20060;-58
2021/07/15 11:26:32;;;;;;;0.43;0.20;;;;;;;;;;6185570;23;19997;-58
2021/07/15 11:28:59;;;;;;;0.17;0.10;;;;;;;;;;6185455;23;20013;-58
2021/07/15 11:31:41;;;;;;;0.20;0.20;;;;;;;;;;6185628;23;20032;-58
2021/07/15 11:34:08;;;;;;;0.60;0.50;;;;;;;;;;6159259;23;20429;-58
2021/07/15 11:36:36;;;;;;;1.20;0.60;;;;;;;;;;6185705;23;20001;-58
2021/07/15 11:39:09;;;;;;;1.80;0.97;;;;;;;;;;6185822;23;20009;-58
2021/07/15 11:41:49;;;;;;;2.37;0.33;;;;;;;;;;6185562;23;20010;-58
2021/07/15 11:44:17;;;;;;;1.40;0.63;;;;;;;;;;6185362;23;20012;-58
2021/07/15 11:46:45;;;;;;;0.53;0.10;;;;;;;;;;6186203;23;20017;-59
2021/07/15 11:52:00;;;;;;;0.83;0.13;;;;;;;;;;6185483;23;20005;-58
2021/07/15 11:54:35;;;;;;;0.63;0.10;;;;;;;;;;6185459;23;20087;-58
2021/07/15 11:57:02;;;;;;;1.90;0.23;;;;;;;;;;6185328;23;20005;-58
2021/07/15 11:59:32;;;;;;;0.40;0.20;;;;;;;;;;6185458;23;20024;-58
2021/07/15 12:02:05;;;;;;;1.23;0.20;;;;;;;;;;6185742;23;20300;-58
2021/07/15 12:04:50;;;;;;;0.63;0.20;;;;;;;;;;6185303;23;20005;-58
2021/07/15 12:07:20;;;;;;;1.40;0.40;;;;;;;;;;6185427;23;20001;-58
2021/07/15 12:09:47;;;;;;;1.37;0.30;;;;;;;;;;6184788;23;20366;-58
2021/07/15 12:12:16;;;;;;;1.27;0.70;;;;;;;;;;6185316;23;20068;-58
2021/07/15 12:14:51;;;;;;;3.53;0.30;;;;;;;;;;6185303;23;20072;-58
2021/07/15 12:17:17;;;;;;;;;;;;;;;;;;6185764;23;20056;-58
2021/07/15 12:20:13;;;;;;;0.90;0.60;;;;;;;;;;6185361;23;19911;-58
2021/07/15 12:22:39;;;;;;;;;;;;;;;;;;6155011;23;20005;-58
2021/07/15 12:25:11;;;;;;;1.27;0.50;;;;;;;;;;6185072;23;20284;-58
2021/07/15 12:27:41;;;;;;;1.13;0.40;;;;;;;;;;6185134;23;20329;-58
2021/07/15 12:30:08;;;;;;;3.40;0.87;;;;;;;;;;6185097;23;20009;-58
2021/07/15 12:32:35;;;;;;;2.60;1.03;;;;;;;;;;6185301;23;20003;-58
2021/07/15 12:35:10;;;;;;;3.67;0.70;;;;;;;;;;6185212;23;20076;-58
2021/07/15 12:37:36;;;;;;;2.20;0.80;;;;;;;;;;6185269;23;20072;-58
2021/07/15 12:40:05;;;;;;;1.40;0.73;;;;;;;;;;6185022;23;20051;-58
2021/07/15 12:42:32;;;;;;;1.70;0.70;;;;;;;;;;6158731;23;20005;-58
2021/07/15 12:44:59;;;;;;;2.67;1.03;;;;;;;;;;6185091;23;20016;-58
2021/07/15 12:47:26;;;;;;;8.53;1.37;;;;;;;;;;6185880;23;20021;-58
2021/07/15 12:49:52;;;;;;;7.00;1.00;;;;;;;;;;6185166;23;20447;-58
2021/07/15 12:52:19;;;;;;;2.67;0.80;;;;;;;;;;6185049;23;19997;-58
2021/07/15 12:54:49;;;;;;;3.83;0.97;;;;;;;;;;6185177;23;20001;-58
2021/07/15 12:57:16;;;;;;;3.30;0.93;;;;;;;;;;6185042;23;20325;-58
2021/07/15 12:59:45;;;;;;;5.70;1.10;;;;;;;;;;6185192;23;20001;-58
2021/07/15 13:02:12;;;;;;;4.90;1.17;;;;;;;;;;6184889;23;20370;-58
2021/07/15 13:04:40;;;;;;;4.07;1.23;;;;;;;;;;6184982;23;20000;-58
2021/07/15 13:07:09;;;;;;;6.37;0.80;;;;;;;;;;6184639;23;20068;-58
2021/07/15 13:10:09;;;;;;;2.63;0.80;;;;;;;;;;6184683;23;20009;-58
2021/07/15 13:15:21;;;;;;;10.07;1.00;;;;;;;;;;6184868;23;20071;-58
2021/07/15 13:17:49;;;;;;;4.53;1.73;;;;;;;;;;6184526;23;20012;-58
2021/07/15 13:20:17;;;;;;;2.97;0.93;;;;;;;;;;6184722;23;20008;-58
2021/07/15 13:22:45;;;;;;;3.30;0.90;;;;;;;;;;6186469;23;20031;-58
2021/07/15 13:25:14;;;;;;;3.33;0.87;;;;;;;;;;6187343;23;20055;-58
2021/07/15 13:27:42;;;;;;;3.20;0.70;;;;;;;;;;6186622;23;20051;-58
2021/07/15 13:30:11;;;;;;;1.10;0.50;;;;;;;;;;6186302;23;20441;-58
2021/07/15 13:32:38;;;;;;;3.47;0.40;;;;;;;;;;6186486;23;20067;-59
2021/07/15 13:35:11;;;;;;;4.00;0.80;;;;;;;;;;6186730;23;20005;-58
2021/07/15 13:37:38;;;;;;;3.13;0.50;;;;;;;;;;6186614;23;20369;-59
2021/07/15 13:40:17;;;;;;;0.70;0.30;;;;;;;;;;6186307;23;20340;-59
2021/07/15 13:42:44;;;;;;;2.87;0.90;;;;;;;;;;6186526;23;20001;-59
2021/07/15 13:45:13;;;;;;;1.93;0.80;;;;;;;;;;6186182;23;20079;-59
2021/07/15 13:47:40;;;;;;;1.70;0.70;;;;;;;;;;6187063;22;20368;-59
2021/07/15 13:50:12;;;;;;;6.77;0.70;;;;;;;;;;6186188;23;20013;-59
2021/07/15 13:52:40;;;;;;;1.07;0.70;;;;;;;;;;6186324;23;20447;-59
2021/07/15 13:55:11;;;;;;;1.03;0.53;;;;;;;;;;6186658;23;20001;-59
2021/07/15 13:57:38;;;;;;;3.00;0.73;;;;;;;;;;6186578;23;20031;-59
2021/07/15 14:00:06;;;;;;;2.40;0.80;;;;;;;;;;6186553;23;20012;-59
2021/07/15 14:13:49;;;;;;;1.90;0.80;;;;;;;;;;4774973;27;8985203;-59
2021/07/15 14:16:19;;;;;;;2.70;1.00;;;;;;;;;;5090040;28;20055;-59
2021/07/15 14:18:47;;;;;;;1.50;0.70;;;;;;;;;;5090131;28;20073;-59
2021/07/15 14:21:14;;;;;;;2.07;0.77;;;;;;;;;;5090124;28;20112;-59
2021/07/15 14:23:41;;;;;;;2.00;0.70;;;;;;;;;;5090048;28;20490;-59
2021/07/15 14:26:09;;;;;;;0.73;0.40;;;;;;;;;;5090155;28;20020;-59
2021/07/15 14:28:35;;;;;;;3.30;0.60;;;;;;;;;;5090060;28;20025;-59
2021/07/15 14:31:02;;;;;;;0.83;0.40;;;;;;;;;;5089978;28;20025;-59
2021/07/15 14:33:29;;;;;;;2.00;0.50;;;;;;;;;;5089857;28;20379;-59
2021/07/15 14:35:56;;;;;;;0.40;0.30;;;;;;;;;;5089925;28;20028;-60
2021/07/15 14:38:23;;;;;;;2.40;0.77;;;;;;;;;;5089883;28;20036;-60
2021/07/15 14:40:51;;;;;;;1.07;0.43;;;;;;;;;;5089618;28;20027;-61
2021/07/15 14:43:18;;;;;;;2.23;0.50;;;;;;;;;;5089725;28;20024;-60
2021/07/15 14:45:45;;;;;;;0.60;0.10;;;;;;;;;;5089666;28;20360;-59
2021/07/15 14:48:12;;;;;;;1.03;0.20;;;;;;;;;;5089657;28;20028;-59
2021/07/15 14:50:40;;;;;;;4.43;0.97;;;;;;;;;;5089553;28;20024;-60
2021/07/15 14:53:07;;;;;;;0.73;0.30;;;;;;;;;;5089452;28;20020;-60
2021/07/15 14:55:33;;;;;;;5.43;0.50;;;;;;;;;;5089620;28;20025;-60
2021/07/15 14:58:00;;;;;;;0.23;0.20;;;;;;;;;;5089477;28;20020;-59
2021/07/15 15:00:27;;;;;;;0.17;0.13;;;;;;;;;;5089464;28;20025;-60
2021/07/15 15:02:54;;;;;;;4.30;0.50;;;;;;;;;;5089349;28;20382;-60
2021/07/15 15:05:22;;;;;;;0.40;0.20;;;;;;;;;;5071516;28;20382;-60
2021/07/15 15:07:50;;;;;;;0.63;0.20;;;;;;;;;;5089279;28;20032;-60
2021/07/15 15:10:17;;;;;;;1.00;0.30;;;;;;;;;;5089363;28;20020;-60
2021/07/15 15:12:45;;;;;;;1.23;0.40;;;;;;;;;;5069932;28;20057;-60